Flick Point, California
Current Conditions -  °F | °C
As of 3:50 PM on Saturday 20 Dec 2014 (Local Time) from KTRK Reporting Station
Broken Clouds Broken Clouds  
Wind Chill: 35°   Ceiling: 2500
Heat Index: 39°   Visibility: 10mi
Dew Point: 34°   Wind: 6mph
Humidity: 81%   Direction: 310°NW
Pressure: 30.16"   Gusts: NA
Location:  39.2392°N, 120.102°W
Report Text: KTRK 202350Z 31005KT 10SM BKN025 04/01 A3016 RMK NOSPECI 10060
Loading
Personal Weather Stations






























Interactive Weather Map New forecast layout! Learn more

10-Day Weather Forecast

Advertisements
Track Severe Weather on mobile